Terminal Aerodrome Forecast
Issued by NWS Duluth, MN

Home | Current Version | Previous Version | Text Only | Print | Product List | Glossary On
Versions: 1 2 3 4 5 6 7 8 9 10 11 12 13 14 15 16 17 18
708
FTUS43 KDLH 260049 AAB
TAFINL
TAF AMD
KINL 260049Z 2601/2624 25009KT 3SM -RA BR OVC009
     FM260200 28015G18KT 5SM -RA BR BKN010 BKN015 OVC021
     FM260700 29015G22KT 4SM -RA OVC019
     FM262200 29020G30KT P6SM -RA OVC015=

USA.gov is the U.S. government's official web portal to all federal, state and local government web resources and services.